Decoded Metar for PAGM (GAMBELL in AK, USA) (IATA:GAM) | Meteo·Mobile Aviation Weather
aviador You're here:

PAGM Decoded Metar

GAMBELL in AK, USA
Report Time2018-12-18 15:56:00
UTC Time2018-12-18 16:48:59
Flight Rules vfr VFR
Wind020° at 17 kt
W.Decomp.*RWY 34: 15.0 kt HW 8.0 kt RCW
W.Rank020° ranks 3
Current wind is below 020° avg. (17.3)
Visibility9999 m
Phenomena:N/A
Clouds:N/A
Expected CloudBase > 1,200 ft AGL from Temp-Dew spread
CeilingNone
Temp-19°C (ISA -34)
Dew Point-22°C (77% RH)
AAT-28.8°C
QNH1010 hPa
Density Alt-4,193 ft
Elevation26 ft
Report Wrong Elevation
Raw Report
PAGM 181556Z AUTO 02017KT 10SM CLR M19/M22 A2983 RMK AO2 SLP108
T11941217 FZRANO=

Extra information for PAGM:More info

Metar Taf Metar & Taf Last 4 Metars F.Rules Stats Wind Profile Meteogram Temp Stats Airport Information Weather charts Add Link Nearby VenuesMetar ALERT Operation Metar Decoded Social comments

AIRNAV info for PAGM